Terminal Aerodrome Forecast
Issued by NWS

Home | Current Version | Previous Version | Text Only | Print | Product List | Glossary On
Versions: 1 2 3 4 5 6 7 8 9 10 11 12 13
000
FTUS41 KBTV 291120
TAFMPV
TAF
KMPV 291120Z 2912/3012 00000KT P6SM SCT018
      TEMPO 2912/2914 BKN015
     FM291400 VRB02KT P6SM SKC
     FM291800 16005KT P6SM FEW050=

USA.gov is the U.S. government's official web portal to all federal, state and local government web resources and services.